sensor_id;sensor_type;location;lat;lon;timestamp;temperature;humidity
11089;DHT22;5598;48.648;8.908;2023-04-29T00:00:11;11.10;99.90
11089;DHT22;5598;48.648;8.908;2023-04-29T00:02:38;11.20;99.90
11089;DHT22;5598;48.648;8.908;2023-04-29T00:05:06;11.20;99.90
11089;DHT22;5598;48.648;8.908;2023-04-29T00:07:33;11.20;99.90
11089;DHT22;5598;48.648;8.908;2023-04-29T00:10:02;11.10;99.90
11089;DHT22;5598;48.648;8.908;2023-04-29T00:12:29;11.10;99.90
11089;DHT22;5598;48.648;8.908;2023-04-29T00:14:57;11.10;99.90
11089;DHT22;5598;48.648;8.908;2023-04-29T00:17:23;11.00;99.90
11089;DHT22;5598;48.648;8.908;2023-04-29T00:19:50;11.00;99.90
11089;DHT22;5598;48.648;8.908;2023-04-29T00:22:17;11.00;99.90
11089;DHT22;5598;48.648;8.908;2023-04-29T00:24:44;11.00;99.90
11089;DHT22;5598;48.648;8.908;2023-04-29T00:27:12;11.00;99.90
11089;DHT22;5598;48.648;8.908;2023-04-29T00:29:38;11.00;99.90
11089;DHT22;5598;48.648;8.908;2023-04-29T00:32:05;11.00;99.90
11089;DHT22;5598;48.648;8.908;2023-04-29T00:34:32;11.00;99.90
11089;DHT22;5598;48.648;8.908;2023-04-29T00:36:59;10.90;99.90
11089;DHT22;5598;48.648;8.908;2023-04-29T00:39:26;10.90;99.90
11089;DHT22;5598;48.648;8.908;2023-04-29T00:41:53;10.90;99.90
11089;DHT22;5598;48.648;8.908;2023-04-29T00:44:21;10.90;99.90
11089;DHT22;5598;48.648;8.908;2023-04-29T00:46:48;10.90;99.90
11089;DHT22;5598;48.648;8.908;2023-04-29T00:49:16;10.90;99.90
11089;DHT22;5598;48.648;8.908;2023-04-29T00:51:43;10.80;99.90
11089;DHT22;5598;48.648;8.908;2023-04-29T00:54:10;10.80;99.90
11089;DHT22;5598;48.648;8.908;2023-04-29T00:56:39;10.80;99.90
11089;DHT22;5598;48.648;8.908;2023-04-29T00:59:07;10.80;99.90
11089;DHT22;5598;48.648;8.908;2023-04-29T01:01:36;10.80;99.90
11089;DHT22;5598;48.648;8.908;2023-04-29T01:04:04;10.80;99.90
11089;DHT22;5598;48.648;8.908;2023-04-29T01:06:39;10.70;99.90
11089;DHT22;5598;48.648;8.908;2023-04-29T01:09:28;10.70;99.90
11089;DHT22;5598;48.648;8.908;2023-04-29T01:12:07;10.60;99.90
11089;DHT22;5598;48.648;8.908;2023-04-29T01:14:36;10.70;99.90
11089;DHT22;5598;48.648;8.908;2023-04-29T01:17:09;10.60;99.90
11089;DHT22;5598;48.648;8.908;2023-04-29T01:19:45;10.60;99.90
11089;DHT22;5598;48.648;8.908;2023-04-29T01:22:13;10.60;99.90
11089;DHT22;5598;48.648;8.908;2023-04-29T01:24:43;10.50;99.90
11089;DHT22;5598;48.648;8.908;2023-04-29T01:27:20;10.60;99.90
11089;DHT22;5598;48.648;8.908;2023-04-29T01:29:55;10.60;99.90
11089;DHT22;5598;48.648;8.908;2023-04-29T01:32:29;10.50;99.90
11089;DHT22;5598;48.648;8.908;2023-04-29T01:35:03;10.50;99.90
11089;DHT22;5598;48.648;8.908;2023-04-29T01:37:40;10.50;99.90
11089;DHT22;5598;48.648;8.908;2023-04-29T01:40:15;10.50;99.90
11089;DHT22;5598;48.648;8.908;2023-04-29T01:42:45;10.40;99.90
11089;DHT22;5598;48.648;8.908;2023-04-29T01:45:15;10.50;99.90
11089;DHT22;5598;48.648;8.908;2023-04-29T01:47:43;10.50;99.90
11089;DHT22;5598;48.648;8.908;2023-04-29T01:50:10;10.50;99.90
11089;DHT22;5598;48.648;8.908;2023-04-29T01:52:37;10.40;99.90
11089;DHT22;5598;48.648;8.908;2023-04-29T01:55:05;10.30;99.90
11089;DHT22;5598;48.648;8.908;2023-04-29T01:57:33;10.30;99.90
11089;DHT22;5598;48.648;8.908;2023-04-29T02:00:00;10.30;99.90
11089;DHT22;5598;48.648;8.908;2023-04-29T02:02:27;10.40;99.90
11089;DHT22;5598;48.648;8.908;2023-04-29T02:04:54;10.40;99.90
11089;DHT22;5598;48.648;8.908;2023-04-29T02:07:21;10.40;99.90
11089;DHT22;5598;48.648;8.908;2023-04-29T02:09:48;10.30;99.90
11089;DHT22;5598;48.648;8.908;2023-04-29T02:12:15;10.30;99.90
11089;DHT22;5598;48.648;8.908;2023-04-29T02:14:43;10.30;99.90
11089;DHT22;5598;48.648;8.908;2023-04-29T02:17:12;10.20;99.90
11089;DHT22;5598;48.648;8.908;2023-04-29T02:19:39;10.10;99.90
11089;DHT22;5598;48.648;8.908;2023-04-29T02:22:05;10.00;99.90
11089;DHT22;5598;48.648;8.908;2023-04-29T02:24:32;9.90;99.90
11089;DHT22;5598;48.648;8.908;2023-04-29T02:26:59;9.80;99.90
11089;DHT22;5598;48.648;8.908;2023-04-29T02:29:30;9.80;99.90
11089;DHT22;5598;48.648;8.908;2023-04-29T02:31:59;9.80;99.90
11089;DHT22;5598;48.648;8.908;2023-04-29T02:34:26;9.90;99.90
11089;DHT22;5598;48.648;8.908;2023-04-29T02:36:53;9.90;99.90
11089;DHT22;5598;48.648;8.908;2023-04-29T02:39:20;10.00;99.90
11089;DHT22;5598;48.648;8.908;2023-04-29T02:41:47;10.00;99.90
11089;DHT22;5598;48.648;8.908;2023-04-29T02:44:14;10.00;99.90
11089;DHT22;5598;48.648;8.908;2023-04-29T02:46:41;10.00;99.90
11089;DHT22;5598;48.648;8.908;2023-04-29T02:49:12;10.00;99.90
11089;DHT22;5598;48.648;8.908;2023-04-29T02:51:39;10.10;99.90
11089;DHT22;5598;48.648;8.908;2023-04-29T02:54:07;10.00;99.90
11089;DHT22;5598;48.648;8.908;2023-04-29T02:56:33;10.00;99.90
11089;DHT22;5598;48.648;8.908;2023-04-29T02:59:00;10.00;99.90
11089;DHT22;5598;48.648;8.908;2023-04-29T03:01:27;9.90;99.90
11089;DHT22;5598;48.648;8.908;2023-04-29T03:03:54;9.90;99.90
11089;DHT22;5598;48.648;8.908;2023-04-29T03:06:23;9.90;99.90
11089;DHT22;5598;48.648;8.908;2023-04-29T03:08:50;9.90;99.90
11089;DHT22;5598;48.648;8.908;2023-04-29T03:11:17;9.80;99.90
11089;DHT22;5598;48.648;8.908;2023-04-29T03:13:44;9.90;99.90
11089;DHT22;5598;48.648;8.908;2023-04-29T03:16:11;9.80;99.90
11089;DHT22;5598;48.648;8.908;2023-04-29T03:18:41;9.70;99.90
11089;DHT22;5598;48.648;8.908;2023-04-29T03:21:08;9.70;99.90
11089;DHT22;5598;48.648;8.908;2023-04-29T03:23:36;9.70;99.90
11089;DHT22;5598;48.648;8.908;2023-04-29T03:26:04;9.70;99.90
11089;DHT22;5598;48.648;8.908;2023-04-29T03:28:31;9.70;99.90
11089;DHT22;5598;48.648;8.908;2023-04-29T03:30:58;9.70;99.90
11089;DHT22;5598;48.648;8.908;2023-04-29T03:33:25;9.70;99.90
11089;DHT22;5598;48.648;8.908;2023-04-29T03:35:52;9.70;99.90
11089;DHT22;5598;48.648;8.908;2023-04-29T03:38:19;9.70;99.90
11089;DHT22;5598;48.648;8.908;2023-04-29T03:40:47;9.60;99.90
11089;DHT22;5598;48.648;8.908;2023-04-29T03:43:14;9.50;99.90
11089;DHT22;5598;48.648;8.908;2023-04-29T03:45:41;9.50;99.90
11089;DHT22;5598;48.648;8.908;2023-04-29T03:48:07;9.50;99.90
11089;DHT22;5598;48.648;8.908;2023-04-29T03:50:34;9.50;99.90
11089;DHT22;5598;48.648;8.908;2023-04-29T03:53:02;9.60;99.90
11089;DHT22;5598;48.648;8.908;2023-04-29T03:55:29;9.60;99.90
11089;DHT22;5598;48.648;8.908;2023-04-29T03:57:57;9.60;99.90
11089;DHT22;5598;48.648;8.908;2023-04-29T04:00:23;9.60;99.90
11089;DHT22;5598;48.648;8.908;2023-04-29T04:02:51;9.60;99.90
11089;DHT22;5598;48.648;8.908;2023-04-29T04:05:17;9.50;99.90
11089;DHT22;5598;48.648;8.908;2023-04-29T04:07:45;9.50;99.90
11089;DHT22;5598;48.648;8.908;2023-04-29T04:10:12;9.50;99.90
11089;DHT22;5598;48.648;8.908;2023-04-29T04:12:39;9.50;99.90
11089;DHT22;5598;48.648;8.908;2023-04-29T04:15:08;9.50;99.90
11089;DHT22;5598;48.648;8.908;2023-04-29T04:17:35;9.60;99.90
11089;DHT22;5598;48.648;8.908;2023-04-29T04:20:02;9.60;99.90
11089;DHT22;5598;48.648;8.908;2023-04-29T04:22:29;9.50;99.90
11089;DHT22;5598;48.648;8.908;2023-04-29T04:24:56;9.50;99.90
11089;DHT22;5598;48.648;8.908;2023-04-29T04:27:22;9.50;99.90
11089;DHT22;5598;48.648;8.908;2023-04-29T04:29:52;9.50;99.90
11089;DHT22;5598;48.648;8.908;2023-04-29T04:32:21;9.40;99.90
11089;DHT22;5598;48.648;8.908;2023-04-29T04:34:48;9.50;99.90
11089;DHT22;5598;48.648;8.908;2023-04-29T04:37:15;9.50;99.90
11089;DHT22;5598;48.648;8.908;2023-04-29T04:39:42;9.50;99.90
11089;DHT22;5598;48.648;8.908;2023-04-29T04:42:09;9.50;99.90
11089;DHT22;5598;48.648;8.908;2023-04-29T04:44:35;9.50;99.90
11089;DHT22;5598;48.648;8.908;2023-04-29T04:47:03;9.50;99.90
11089;DHT22;5598;48.648;8.908;2023-04-29T04:49:32;9.50;99.90
11089;DHT22;5598;48.648;8.908;2023-04-29T04:51:58;9.60;99.90
11089;DHT22;5598;48.648;8.908;2023-04-29T04:54:25;9.50;99.90
11089;DHT22;5598;48.648;8.908;2023-04-29T04:56:52;9.60;99.90
11089;DHT22;5598;48.648;8.908;2023-04-29T04:59:19;9.60;99.90
11089;DHT22;5598;48.648;8.908;2023-04-29T05:01:45;9.60;99.90
11089;DHT22;5598;48.648;8.908;2023-04-29T05:04:12;9.70;99.90
11089;DHT22;5598;48.648;8.908;2023-04-29T05:06:41;9.70;99.90
11089;DHT22;5598;48.648;8.908;2023-04-29T05:09:08;9.80;99.90
11089;DHT22;5598;48.648;8.908;2023-04-29T05:11:35;9.80;99.90
11089;DHT22;5598;48.648;8.908;2023-04-29T05:14:02;9.80;99.90
11089;DHT22;5598;48.648;8.908;2023-04-29T05:16:29;9.90;99.90
11089;DHT22;5598;48.648;8.908;2023-04-29T05:18:56;9.90;99.90
11089;DHT22;5598;48.648;8.908;2023-04-29T05:21:23;9.90;99.90
11089;DHT22;5598;48.648;8.908;2023-04-29T05:23:51;10.00;99.90
11089;DHT22;5598;48.648;8.908;2023-04-29T05:26:18;10.00;99.90
11089;DHT22;5598;48.648;8.908;2023-04-29T05:28:45;10.00;99.90
11089;DHT22;5598;48.648;8.908;2023-04-29T05:31:12;10.00;99.90
11089;DHT22;5598;48.648;8.908;2023-04-29T05:33:39;10.10;99.90
11089;DHT22;5598;48.648;8.908;2023-04-29T05:36:06;10.20;99.90
11089;DHT22;5598;48.648;8.908;2023-04-29T05:38:33;10.20;99.90
11089;DHT22;5598;48.648;8.908;2023-04-29T05:41:01;10.30;99.90
11089;DHT22;5598;48.648;8.908;2023-04-29T05:43:28;10.30;99.90
11089;DHT22;5598;48.648;8.908;2023-04-29T05:45:55;10.30;99.90
11089;DHT22;5598;48.648;8.908;2023-04-29T05:48:21;10.30;99.90
11089;DHT22;5598;48.648;8.908;2023-04-29T05:50:49;10.30;99.90
11089;DHT22;5598;48.648;8.908;2023-04-29T05:53:16;10.40;99.90
11089;DHT22;5598;48.648;8.908;2023-04-29T05:55:42;10.40;99.90
11089;DHT22;5598;48.648;8.908;2023-04-29T05:58:12;10.40;99.90
11089;DHT22;5598;48.648;8.908;2023-04-29T06:00:39;10.40;99.90
11089;DHT22;5598;48.648;8.908;2023-04-29T06:03:08;10.50;99.90
11089;DHT22;5598;48.648;8.908;2023-04-29T06:05:35;10.60;99.90
11089;DHT22;5598;48.648;8.908;2023-04-29T06:08:03;10.60;99.90
11089;DHT22;5598;48.648;8.908;2023-04-29T06:10:30;10.70;99.90
11089;DHT22;5598;48.648;8.908;2023-04-29T06:12:57;10.80;99.90
11089;DHT22;5598;48.648;8.908;2023-04-29T06:15:26;10.90;99.90
11089;DHT22;5598;48.648;8.908;2023-04-29T06:17:52;11.10;99.90
11089;DHT22;5598;48.648;8.908;2023-04-29T06:20:19;11.30;99.90
11089;DHT22;5598;48.648;8.908;2023-04-29T06:22:46;11.50;99.90
11089;DHT22;5598;48.648;8.908;2023-04-29T06:25:13;11.70;99.90
11089;DHT22;5598;48.648;8.908;2023-04-29T06:27:40;12.00;99.90
11089;DHT22;5598;48.648;8.908;2023-04-29T06:30:08;12.30;99.90
11089;DHT22;5598;48.648;8.908;2023-04-29T06:32:37;12.60;99.90
11089;DHT22;5598;48.648;8.908;2023-04-29T06:35:04;12.70;99.90
11089;DHT22;5598;48.648;8.908;2023-04-29T06:37:31;12.80;99.90
11089;DHT22;5598;48.648;8.908;2023-04-29T06:39:58;13.00;99.90
11089;DHT22;5598;48.648;8.908;2023-04-29T06:42:25;13.20;99.90
11089;DHT22;5598;48.648;8.908;2023-04-29T06:44:52;13.20;99.90
11089;DHT22;5598;48.648;8.908;2023-04-29T06:47:19;13.30;99.90
11089;DHT22;5598;48.648;8.908;2023-04-29T06:49:47;13.40;99.90
11089;DHT22;5598;48.648;8.908;2023-04-29T06:52:14;13.50;99.90
11089;DHT22;5598;48.648;8.908;2023-04-29T06:54:41;13.50;99.90
11089;DHT22;5598;48.648;8.908;2023-04-29T06:57:08;13.50;99.90
11089;DHT22;5598;48.648;8.908;2023-04-29T06:59:34;13.50;99.90
11089;DHT22;5598;48.648;8.908;2023-04-29T07:02:01;13.60;99.90
11089;DHT22;5598;48.648;8.908;2023-04-29T07:04:28;13.80;99.90
11089;DHT22;5598;48.648;8.908;2023-04-29T07:06:56;14.00;99.90
11089;DHT22;5598;48.648;8.908;2023-04-29T07:09:24;14.10;99.90
11089;DHT22;5598;48.648;8.908;2023-04-29T07:11:52;14.20;99.90
11089;DHT22;5598;48.648;8.908;2023-04-29T07:14:19;14.20;99.90
11089;DHT22;5598;48.648;8.908;2023-04-29T07:16:46;14.20;99.90
11089;DHT22;5598;48.648;8.908;2023-04-29T07:19:13;14.30;99.90
11089;DHT22;5598;48.648;8.908;2023-04-29T07:21:40;14.30;99.90
11089;DHT22;5598;48.648;8.908;2023-04-29T07:24:08;14.50;99.90
11089;DHT22;5598;48.648;8.908;2023-04-29T07:26:35;14.70;99.90
11089;DHT22;5598;48.648;8.908;2023-04-29T07:29:02;14.80;99.90
11089;DHT22;5598;48.648;8.908;2023-04-29T07:31:28;15.00;99.90
11089;DHT22;5598;48.648;8.908;2023-04-29T07:33:55;14.80;99.90
11089;DHT22;5598;48.648;8.908;2023-04-29T07:36:22;14.80;99.90
11089;DHT22;5598;48.648;8.908;2023-04-29T07:38:49;14.80;99.90
11089;DHT22;5598;48.648;8.908;2023-04-29T07:41:17;14.70;99.90
11089;DHT22;5598;48.648;8.908;2023-04-29T07:43:44;14.70;99.90
11089;DHT22;5598;48.648;8.908;2023-04-29T07:46:11;14.80;99.90
11089;DHT22;5598;48.648;8.908;2023-04-29T07:48:38;14.90;99.90
11089;DHT22;5598;48.648;8.908;2023-04-29T07:51:05;15.20;99.90
11089;DHT22;5598;48.648;8.908;2023-04-29T07:53:32;15.60;99.90
11089;DHT22;5598;48.648;8.908;2023-04-29T07:56:04;15.80;99.90
11089;DHT22;5598;48.648;8.908;2023-04-29T07:58:33;15.70;99.90
11089;DHT22;5598;48.648;8.908;2023-04-29T08:01:05;15.50;99.90
11089;DHT22;5598;48.648;8.908;2023-04-29T08:03:33;15.20;99.90
11089;DHT22;5598;48.648;8.908;2023-04-29T08:06:00;15.10;99.90
11089;DHT22;5598;48.648;8.908;2023-04-29T08:08:28;15.10;99.90
11089;DHT22;5598;48.648;8.908;2023-04-29T08:10:55;15.10;99.90
11089;DHT22;5598;48.648;8.908;2023-04-29T08:13:21;15.10;99.90
11089;DHT22;5598;48.648;8.908;2023-04-29T08:15:50;15.10;99.90
11089;DHT22;5598;48.648;8.908;2023-04-29T08:18:17;15.10;99.90
11089;DHT22;5598;48.648;8.908;2023-04-29T08:20:44;15.30;99.90
11089;DHT22;5598;48.648;8.908;2023-04-29T08:23:12;15.60;99.90
11089;DHT22;5598;48.648;8.908;2023-04-29T08:25:40;15.90;99.90
11089;DHT22;5598;48.648;8.908;2023-04-29T08:28:07;16.30;99.90
11089;DHT22;5598;48.648;8.908;2023-04-29T08:30:37;16.50;99.90
11089;DHT22;5598;48.648;8.908;2023-04-29T08:33:05;16.50;99.90
11089;DHT22;5598;48.648;8.908;2023-04-29T08:35:33;16.70;99.90
11089;DHT22;5598;48.648;8.908;2023-04-29T08:38:02;16.90;99.90
11089;DHT22;5598;48.648;8.908;2023-04-29T08:40:29;17.20;99.90
11089;DHT22;5598;48.648;8.908;2023-04-29T08:42:56;17.50;99.90
11089;DHT22;5598;48.648;8.908;2023-04-29T08:45:24;17.70;99.90
11089;DHT22;5598;48.648;8.908;2023-04-29T08:47:53;17.90;99.90
11089;DHT22;5598;48.648;8.908;2023-04-29T08:50:23;18.00;99.90
11089;DHT22;5598;48.648;8.908;2023-04-29T08:52:50;18.20;99.90
11089;DHT22;5598;48.648;8.908;2023-04-29T08:55:17;18.30;99.90
11089;DHT22;5598;48.648;8.908;2023-04-29T08:57:44;18.20;99.90
11089;DHT22;5598;48.648;8.908;2023-04-29T09:00:13;17.80;99.90
11089;DHT22;5598;48.648;8.908;2023-04-29T09:02:43;17.20;99.90
11089;DHT22;5598;48.648;8.908;2023-04-29T09:05:11;17.20;99.90
11089;DHT22;5598;48.648;8.908;2023-04-29T09:07:40;17.40;99.90
11089;DHT22;5598;48.648;8.908;2023-04-29T09:10:08;17.80;99.90
11089;DHT22;5598;48.648;8.908;2023-04-29T09:12:35;17.90;99.90
11089;DHT22;5598;48.648;8.908;2023-04-29T09:15:02;18.10;99.90
11089;DHT22;5598;48.648;8.908;2023-04-29T09:17:40;18.50;99.90
11089;DHT22;5598;48.648;8.908;2023-04-29T09:20:26;19.00;99.90
11089;DHT22;5598;48.648;8.908;2023-04-29T09:22:56;19.50;99.90
11089;DHT22;5598;48.648;8.908;2023-04-29T09:25:24;20.10;99.90
11089;DHT22;5598;48.648;8.908;2023-04-29T09:27:50;21.40;99.90
11089;DHT22;5598;48.648;8.908;2023-04-29T09:30:17;22.10;99.90
11089;DHT22;5598;48.648;8.908;2023-04-29T09:32:55;22.10;99.90
11089;DHT22;5598;48.648;8.908;2023-04-29T09:35:29;22.30;99.80
11089;DHT22;5598;48.648;8.908;2023-04-29T09:38:08;22.00;98.80
11089;DHT22;5598;48.648;8.908;2023-04-29T09:40:35;21.50;99.90
11089;DHT22;5598;48.648;8.908;2023-04-29T09:43:02;21.00;99.60
11089;DHT22;5598;48.648;8.908;2023-04-29T09:45:33;20.60;99.90
11089;DHT22;5598;48.648;8.908;2023-04-29T09:48:01;20.30;99.90
11089;DHT22;5598;48.648;8.908;2023-04-29T09:50:29;20.10;99.90
11089;DHT22;5598;48.648;8.908;2023-04-29T09:52:56;20.50;99.90
11089;DHT22;5598;48.648;8.908;2023-04-29T09:55:24;21.30;99.80
11089;DHT22;5598;48.648;8.908;2023-04-29T09:57:52;21.80;99.40
11089;DHT22;5598;48.648;8.908;2023-04-29T10:00:19;22.10;99.00
11089;DHT22;5598;48.648;8.908;2023-04-29T10:02:46;21.90;98.10
11089;DHT22;5598;48.648;8.908;2023-04-29T10:05:14;21.50;97.10
11089;DHT22;5598;48.648;8.908;2023-04-29T10:07:41;21.00;98.10
11089;DHT22;5598;48.648;8.908;2023-04-29T10:10:09;20.50;97.40
11089;DHT22;5598;48.648;8.908;2023-04-29T10:12:39;20.20;98.50
11089;DHT22;5598;48.648;8.908;2023-04-29T10:15:14;20.10;99.40
11089;DHT22;5598;48.648;8.908;2023-04-29T10:17:45;20.20;99.40
11089;DHT22;5598;48.648;8.908;2023-04-29T10:20:15;21.00;99.90
11089;DHT22;5598;48.648;8.908;2023-04-29T10:22:45;22.40;98.70
11089;DHT22;5598;48.648;8.908;2023-04-29T10:25:14;22.80;96.10
11089;DHT22;5598;48.648;8.908;2023-04-29T10:27:43;22.50;94.20
11089;DHT22;5598;48.648;8.908;2023-04-29T10:30:11;22.00;93.00
11089;DHT22;5598;48.648;8.908;2023-04-29T10:32:39;21.60;94.50
11089;DHT22;5598;48.648;8.908;2023-04-29T10:35:08;21.30;94.60
11089;DHT22;5598;48.648;8.908;2023-04-29T10:37:36;21.00;94.40
11089;DHT22;5598;48.648;8.908;2023-04-29T10:40:09;21.60;94.40
11089;DHT22;5598;48.648;8.908;2023-04-29T10:42:44;23.00;94.20
11089;DHT22;5598;48.648;8.908;2023-04-29T10:45:19;24.00;92.10
11089;DHT22;5598;48.648;8.908;2023-04-29T10:48:10;23.70;90.50
11089;DHT22;5598;48.648;8.908;2023-04-29T10:50:59;23.10;91.70
11089;DHT22;5598;48.648;8.908;2023-04-29T10:53:27;22.80;91.60
11089;DHT22;5598;48.648;8.908;2023-04-29T10:55:57;22.50;90.70
11089;DHT22;5598;48.648;8.908;2023-04-29T10:58:35;22.00;91.80
11089;DHT22;5598;48.648;8.908;2023-04-29T11:01:03;22.30;92.80
11089;DHT22;5598;48.648;8.908;2023-04-29T11:03:45;23.80;93.20
11089;DHT22;5598;48.648;8.908;2023-04-29T11:06:12;24.90;90.20
11089;DHT22;5598;48.648;8.908;2023-04-29T11:08:39;25.80;88.40
11089;DHT22;5598;48.648;8.908;2023-04-29T11:11:08;26.80;84.70
11089;DHT22;5598;48.648;8.908;2023-04-29T11:13:38;27.30;82.30
11089;DHT22;5598;48.648;8.908;2023-04-29T11:16:07;27.00;79.10
11089;DHT22;5598;48.648;8.908;2023-04-29T11:18:34;26.60;79.90
11089;DHT22;5598;48.648;8.908;2023-04-29T11:21:14;26.80;81.30
11089;DHT22;5598;48.648;8.908;2023-04-29T11:23:40;27.30;80.00
11089;DHT22;5598;48.648;8.908;2023-04-29T11:26:09;28.60;77.20
11089;DHT22;5598;48.648;8.908;2023-04-29T11:28:41;29.80;74.30
11089;DHT22;5598;48.648;8.908;2023-04-29T11:31:08;30.90;73.30
11089;DHT22;5598;48.648;8.908;2023-04-29T11:33:35;30.70;66.60
11089;DHT22;5598;48.648;8.908;2023-04-29T11:36:02;29.70;65.60
11089;DHT22;5598;48.648;8.908;2023-04-29T11:38:29;28.80;70.70
11089;DHT22;5598;48.648;8.908;2023-04-29T11:40:57;28.00;70.80
11089;DHT22;5598;48.648;8.908;2023-04-29T11:43:25;26.70;73.70
11089;DHT22;5598;48.648;8.908;2023-04-29T11:45:53;26.50;75.90
11089;DHT22;5598;48.648;8.908;2023-04-29T11:48:20;27.20;72.70
11089;DHT22;5598;48.648;8.908;2023-04-29T11:50:49;28.10;70.20
11089;DHT22;5598;48.648;8.908;2023-04-29T11:53:19;28.90;67.80
11089;DHT22;5598;48.648;8.908;2023-04-29T11:55:46;29.50;65.70
11089;DHT22;5598;48.648;8.908;2023-04-29T11:58:14;29.80;68.10
11089;DHT22;5598;48.648;8.908;2023-04-29T12:00:41;29.60;64.70
11089;DHT22;5598;48.648;8.908;2023-04-29T12:03:14;29.70;65.20
11089;DHT22;5598;48.648;8.908;2023-04-29T12:05:45;29.80;64.70
11089;DHT22;5598;48.648;8.908;2023-04-29T12:08:12;30.40;64.30
11089;DHT22;5598;48.648;8.908;2023-04-29T12:10:40;30.80;65.40
11089;DHT22;5598;48.648;8.908;2023-04-29T12:13:07;31.00;61.70
11089;DHT22;5598;48.648;8.908;2023-04-29T12:15:34;31.00;61.80
11089;DHT22;5598;48.648;8.908;2023-04-29T12:18:00;30.80;60.00
11089;DHT22;5598;48.648;8.908;2023-04-29T12:20:29;30.50;61.90
11089;DHT22;5598;48.648;8.908;2023-04-29T12:22:56;31.00;61.20
11089;DHT22;5598;48.648;8.908;2023-04-29T12:25:24;30.90;60.00
11089;DHT22;5598;48.648;8.908;2023-04-29T12:27:58;31.10;59.90
11089;DHT22;5598;48.648;8.908;2023-04-29T12:30:25;31.60;63.00
11089;DHT22;5598;48.648;8.908;2023-04-29T12:32:52;31.80;60.00
11089;DHT22;5598;48.648;8.908;2023-04-29T12:35:20;32.10;59.00
11089;DHT22;5598;48.648;8.908;2023-04-29T12:37:49;31.80;56.80
11089;DHT22;5598;48.648;8.908;2023-04-29T12:40:16;31.80;57.20
11089;DHT22;5598;48.648;8.908;2023-04-29T12:42:44;31.80;58.30
11089;DHT22;5598;48.648;8.908;2023-04-29T12:45:28;31.70;57.40
11089;DHT22;5598;48.648;8.908;2023-04-29T12:47:56;31.50;57.70
11089;DHT22;5598;48.648;8.908;2023-04-29T12:50:29;31.10;57.30
11089;DHT22;5598;48.648;8.908;2023-04-29T12:52:58;30.80;57.10
11089;DHT22;5598;48.648;8.908;2023-04-29T12:55:25;30.90;55.10
11089;DHT22;5598;48.648;8.908;2023-04-29T12:57:52;31.00;56.80
11089;DHT22;5598;48.648;8.908;2023-04-29T13:00:19;30.80;55.20
11089;DHT22;5598;48.648;8.908;2023-04-29T13:02:46;30.50;57.60
11089;DHT22;5598;48.648;8.908;2023-04-29T13:05:13;30.60;57.20
11089;DHT22;5598;48.648;8.908;2023-04-29T13:07:41;30.60;56.80
11089;DHT22;5598;48.648;8.908;2023-04-29T13:10:10;30.60;60.50
11089;DHT22;5598;48.648;8.908;2023-04-29T13:12:38;30.80;60.50
11089;DHT22;5598;48.648;8.908;2023-04-29T13:15:06;31.20;58.90
11089;DHT22;5598;48.648;8.908;2023-04-29T13:17:34;31.20;61.10
11089;DHT22;5598;48.648;8.908;2023-04-29T13:20:01;31.00;59.80
11089;DHT22;5598;48.648;8.908;2023-04-29T13:22:27;30.50;59.10
11089;DHT22;5598;48.648;8.908;2023-04-29T13:24:55;29.80;61.10
11089;DHT22;5598;48.648;8.908;2023-04-29T13:27:23;29.90;59.90
11089;DHT22;5598;48.648;8.908;2023-04-29T13:29:50;30.30;60.20
11089;DHT22;5598;48.648;8.908;2023-04-29T13:32:16;30.00;60.20
11089;DHT22;5598;48.648;8.908;2023-04-29T13:34:45;29.20;61.70
11089;DHT22;5598;48.648;8.908;2023-04-29T13:37:12;28.50;61.70
11089;DHT22;5598;48.648;8.908;2023-04-29T13:39:39;27.70;64.20
11089;DHT22;5598;48.648;8.908;2023-04-29T13:42:06;27.20;64.50
11089;DHT22;5598;48.648;8.908;2023-04-29T13:44:34;27.10;65.20
11089;DHT22;5598;48.648;8.908;2023-04-29T13:47:01;26.70;65.40
11089;DHT22;5598;48.648;8.908;2023-04-29T13:49:28;26.20;67.10
11089;DHT22;5598;48.648;8.908;2023-04-29T13:51:55;25.90;66.70
11089;DHT22;5598;48.648;8.908;2023-04-29T13:54:22;25.60;67.30
11089;DHT22;5598;48.648;8.908;2023-04-29T13:56:48;25.40;68.10
11089;DHT22;5598;48.648;8.908;2023-04-29T13:59:15;25.50;68.80
11089;DHT22;5598;48.648;8.908;2023-04-29T14:01:44;26.10;68.30
11089;DHT22;5598;48.648;8.908;2023-04-29T14:04:10;27.00;68.50
11089;DHT22;5598;48.648;8.908;2023-04-29T14:06:37;27.50;64.70
11089;DHT22;5598;48.648;8.908;2023-04-29T14:09:04;27.30;62.80
11089;DHT22;5598;48.648;8.908;2023-04-29T14:11:31;26.40;63.80
11089;DHT22;5598;48.648;8.908;2023-04-29T14:14:00;25.40;66.80
11089;DHT22;5598;48.648;8.908;2023-04-29T14:16:27;24.90;69.00
11089;DHT22;5598;48.648;8.908;2023-04-29T14:18:55;24.80;70.50
11089;DHT22;5598;48.648;8.908;2023-04-29T14:21:22;25.00;70.80
11089;DHT22;5598;48.648;8.908;2023-04-29T14:23:49;25.40;68.30
11089;DHT22;5598;48.648;8.908;2023-04-29T14:26:16;25.40;66.60
11089;DHT22;5598;48.648;8.908;2023-04-29T14:28:43;25.00;67.40
11089;DHT22;5598;48.648;8.908;2023-04-29T14:31:09;24.80;69.60
11089;DHT22;5598;48.648;8.908;2023-04-29T14:33:38;24.60;70.50
11089;DHT22;5598;48.648;8.908;2023-04-29T14:36:06;24.30;69.80
11089;DHT22;5598;48.648;8.908;2023-04-29T14:38:34;24.10;71.60
11089;DHT22;5598;48.648;8.908;2023-04-29T14:41:01;23.80;70.40
11089;DHT22;5598;48.648;8.908;2023-04-29T14:43:28;23.60;71.70
11089;DHT22;5598;48.648;8.908;2023-04-29T14:45:55;23.30;72.20
11089;DHT22;5598;48.648;8.908;2023-04-29T14:48:21;23.00;72.20
11089;DHT22;5598;48.648;8.908;2023-04-29T14:50:49;22.70;73.90
11089;DHT22;5598;48.648;8.908;2023-04-29T14:53:17;22.50;74.20
11089;DHT22;5598;48.648;8.908;2023-04-29T14:55:44;22.20;75.10
11089;DHT22;5598;48.648;8.908;2023-04-29T14:58:11;22.00;74.80
11089;DHT22;5598;48.648;8.908;2023-04-29T15:00:37;21.60;74.90
11089;DHT22;5598;48.648;8.908;2023-04-29T15:03:04;21.30;75.70
11089;DHT22;5598;48.648;8.908;2023-04-29T15:05:31;21.00;76.70
11089;DHT22;5598;48.648;8.908;2023-04-29T15:07:58;20.70;77.60
11089;DHT22;5598;48.648;8.908;2023-04-29T15:10:27;20.50;77.40
11089;DHT22;5598;48.648;8.908;2023-04-29T15:12:54;20.40;78.70
11089;DHT22;5598;48.648;8.908;2023-04-29T15:15:21;20.30;78.00
11089;DHT22;5598;48.648;8.908;2023-04-29T15:17:48;20.10;77.30
11089;DHT22;5598;48.648;8.908;2023-04-29T15:20:15;20.00;78.90
11089;DHT22;5598;48.648;8.908;2023-04-29T15:22:42;19.90;79.00
11089;DHT22;5598;48.648;8.908;2023-04-29T15:25:09;19.80;80.00
11089;DHT22;5598;48.648;8.908;2023-04-29T15:27:37;19.80;79.50
11089;DHT22;5598;48.648;8.908;2023-04-29T15:30:05;19.80;79.20
11089;DHT22;5598;48.648;8.908;2023-04-29T15:32:32;19.70;79.80
11089;DHT22;5598;48.648;8.908;2023-04-29T15:34:59;19.60;79.40
11089;DHT22;5598;48.648;8.908;2023-04-29T15:37:26;19.40;78.80
11089;DHT22;5598;48.648;8.908;2023-04-29T15:39:53;19.30;80.90
11089;DHT22;5598;48.648;8.908;2023-04-29T15:42:20;19.20;80.80
11089;DHT22;5598;48.648;8.908;2023-04-29T15:44:48;19.00;80.30
11089;DHT22;5598;48.648;8.908;2023-04-29T15:47:15;18.90;80.80
11089;DHT22;5598;48.648;8.908;2023-04-29T15:49:42;18.70;80.80
11089;DHT22;5598;48.648;8.908;2023-04-29T15:52:09;18.50;81.20
11089;DHT22;5598;48.648;8.908;2023-04-29T15:54:36;18.40;82.70